sensor_id;sensor_type;location;lat;lon;timestamp;P1;durP1;ratioP1;P2;durP2;ratioP2
68457;SDS011;65384;52.016;5.428;2023-05-09T00:00:08;50.72;;;17.52;;
68457;SDS011;65384;52.016;5.428;2023-05-09T00:02:35;48.70;;;16.55;;
68457;SDS011;65384;52.016;5.428;2023-05-09T00:05:02;57.38;;;18.25;;
68457;SDS011;65384;52.016;5.428;2023-05-09T00:07:29;54.88;;;17.77;;
68457;SDS011;65384;52.016;5.428;2023-05-09T00:09:55;57.08;;;17.75;;
68457;SDS011;65384;52.016;5.428;2023-05-09T00:12:21;53.78;;;18.00;;
68457;SDS011;65384;52.016;5.428;2023-05-09T00:14:46;53.78;;;17.70;;
68457;SDS011;65384;52.016;5.428;2023-05-09T00:17:15;56.17;;;16.98;;
68457;SDS011;65384;52.016;5.428;2023-05-09T00:19:42;53.50;;;17.80;;
68457;SDS011;65384;52.016;5.428;2023-05-09T00:22:08;54.22;;;17.98;;
68457;SDS011;65384;52.016;5.428;2023-05-09T00:24:33;56.10;;;17.80;;
68457;SDS011;65384;52.016;5.428;2023-05-09T00:26:59;58.53;;;18.17;;
68457;SDS011;65384;52.016;5.428;2023-05-09T00:29:24;56.70;;;18.20;;
68457;SDS011;65384;52.016;5.428;2023-05-09T00:31:50;50.38;;;17.17;;
68457;SDS011;65384;52.016;5.428;2023-05-09T00:34:15;51.85;;;17.08;;
68457;SDS011;65384;52.016;5.428;2023-05-09T00:49:32;52.03;;;17.95;;
68457;SDS011;65384;52.016;5.428;2023-05-09T00:51:57;55.15;;;17.35;;
68457;SDS011;65384;52.016;5.428;2023-05-09T00:54:23;53.65;;;17.55;;
68457;SDS011;65384;52.016;5.428;2023-05-09T00:56:49;58.63;;;18.55;;
68457;SDS011;65384;52.016;5.428;2023-05-09T00:59:15;56.17;;;18.38;;
68457;SDS011;65384;52.016;5.428;2023-05-09T01:01:40;59.13;;;19.70;;
68457;SDS011;65384;52.016;5.428;2023-05-09T01:04:05;55.50;;;18.73;;
68457;SDS011;65384;52.016;5.428;2023-05-09T01:06:35;55.17;;;18.02;;
68457;SDS011;65384;52.016;5.428;2023-05-09T01:09:23;55.72;;;18.30;;
68457;SDS011;65384;52.016;5.428;2023-05-09T01:20:22;58.67;;;18.75;;
68457;SDS011;65384;52.016;5.428;2023-05-09T01:22:59;58.65;;;19.70;;
68457;SDS011;65384;52.016;5.428;2023-05-09T01:31:00;62.92;;;19.83;;
68457;SDS011;65384;52.016;5.428;2023-05-09T01:33:27;57.85;;;18.02;;
68457;SDS011;65384;52.016;5.428;2023-05-09T01:35:57;58.83;;;18.75;;
68457;SDS011;65384;52.016;5.428;2023-05-09T01:40:52;56.35;;;19.17;;
68457;SDS011;65384;52.016;5.428;2023-05-09T01:43:18;59.90;;;18.63;;
68457;SDS011;65384;52.016;5.428;2023-05-09T01:45:46;62.17;;;19.90;;
68457;SDS011;65384;52.016;5.428;2023-05-09T01:48:12;59.40;;;19.13;;
68457;SDS011;65384;52.016;5.428;2023-05-09T01:50:38;63.42;;;18.95;;
68457;SDS011;65384;52.016;5.428;2023-05-09T01:53:05;62.28;;;19.42;;
68457;SDS011;65384;52.016;5.428;2023-05-09T01:55:31;58.63;;;19.92;;
68457;SDS011;65384;52.016;5.428;2023-05-09T01:57:58;62.83;;;18.95;;
68457;SDS011;65384;52.016;5.428;2023-05-09T02:00:24;64.85;;;19.58;;
68457;SDS011;65384;52.016;5.428;2023-05-09T02:02:50;61.60;;;19.50;;
68457;SDS011;65384;52.016;5.428;2023-05-09T02:05:16;61.83;;;19.15;;
68457;SDS011;65384;52.016;5.428;2023-05-09T02:07:42;64.07;;;19.40;;
68457;SDS011;65384;52.016;5.428;2023-05-09T02:10:09;62.47;;;20.63;;
68457;SDS011;65384;52.016;5.428;2023-05-09T02:12:35;59.88;;;20.75;;
68457;SDS011;65384;52.016;5.428;2023-05-09T02:15:00;65.07;;;19.55;;
68457;SDS011;65384;52.016;5.428;2023-05-09T02:17:26;63.15;;;20.20;;
68457;SDS011;65384;52.016;5.428;2023-05-09T02:19:54;61.78;;;18.98;;
68457;SDS011;65384;52.016;5.428;2023-05-09T02:22:20;57.47;;;18.85;;
68457;SDS011;65384;52.016;5.428;2023-05-09T02:24:45;57.35;;;18.98;;
68457;SDS011;65384;52.016;5.428;2023-05-09T02:27:11;59.22;;;19.48;;
68457;SDS011;65384;52.016;5.428;2023-05-09T02:29:46;58.78;;;19.23;;
68457;SDS011;65384;52.016;5.428;2023-05-09T02:32:21;58.10;;;18.77;;
68457;SDS011;65384;52.016;5.428;2023-05-09T02:34:49;52.85;;;17.88;;
68457;SDS011;65384;52.016;5.428;2023-05-09T02:37:16;56.13;;;18.00;;
68457;SDS011;65384;52.016;5.428;2023-05-09T02:39:42;60.72;;;18.88;;
68457;SDS011;65384;52.016;5.428;2023-05-09T02:42:09;61.67;;;19.83;;
68457;SDS011;65384;52.016;5.428;2023-05-09T02:44:35;58.60;;;19.08;;
68457;SDS011;65384;52.016;5.428;2023-05-09T02:47:01;54.38;;;18.88;;
68457;SDS011;65384;52.016;5.428;2023-05-09T02:49:27;54.88;;;18.27;;
68457;SDS011;65384;52.016;5.428;2023-05-09T02:51:52;56.05;;;17.85;;
68457;SDS011;65384;52.016;5.428;2023-05-09T02:54:17;61.75;;;18.73;;
68457;SDS011;65384;52.016;5.428;2023-05-09T02:56:43;55.20;;;18.63;;
68457;SDS011;65384;52.016;5.428;2023-05-09T02:59:08;59.88;;;18.65;;
68457;SDS011;65384;52.016;5.428;2023-05-09T03:01:33;59.17;;;19.00;;
68457;SDS011;65384;52.016;5.428;2023-05-09T03:04:00;61.80;;;19.33;;
68457;SDS011;65384;52.016;5.428;2023-05-09T03:06:25;57.28;;;19.25;;
68457;SDS011;65384;52.016;5.428;2023-05-09T03:08:50;55.95;;;18.27;;
68457;SDS011;65384;52.016;5.428;2023-05-09T03:11:16;54.53;;;18.30;;
68457;SDS011;65384;52.016;5.428;2023-05-09T03:13:41;57.70;;;18.75;;
68457;SDS011;65384;52.016;5.428;2023-05-09T03:16:06;56.15;;;18.67;;
68457;SDS011;65384;52.016;5.428;2023-05-09T03:18:32;54.65;;;18.52;;
68457;SDS011;65384;52.016;5.428;2023-05-09T03:20:57;59.78;;;18.98;;
68457;SDS011;65384;52.016;5.428;2023-05-09T03:23:22;51.72;;;17.80;;
68457;SDS011;65384;52.016;5.428;2023-05-09T03:25:48;53.42;;;18.30;;
68457;SDS011;65384;52.016;5.428;2023-05-09T03:28:13;54.75;;;17.77;;
68457;SDS011;65384;52.016;5.428;2023-05-09T03:30:38;53.90;;;18.27;;
68457;SDS011;65384;52.016;5.428;2023-05-09T03:33:04;58.22;;;18.10;;
68457;SDS011;65384;52.016;5.428;2023-05-09T03:35:30;53.35;;;18.15;;
68457;SDS011;65384;52.016;5.428;2023-05-09T03:37:55;53.25;;;17.25;;
68457;SDS011;65384;52.016;5.428;2023-05-09T03:40:21;51.97;;;17.52;;
68457;SDS011;65384;52.016;5.428;2023-05-09T03:42:46;49.60;;;17.33;;
68457;SDS011;65384;52.016;5.428;2023-05-09T03:45:12;50.45;;;17.27;;
68457;SDS011;65384;52.016;5.428;2023-05-09T03:47:37;51.80;;;17.70;;
68457;SDS011;65384;52.016;5.428;2023-05-09T03:50:02;49.33;;;16.90;;
68457;SDS011;65384;52.016;5.428;2023-05-09T03:52:28;45.92;;;16.40;;
68457;SDS011;65384;52.016;5.428;2023-05-09T03:54:53;44.72;;;15.73;;
68457;SDS011;65384;52.016;5.428;2023-05-09T03:57:19;44.75;;;15.88;;
68457;SDS011;65384;52.016;5.428;2023-05-09T03:59:44;41.78;;;15.75;;
68457;SDS011;65384;52.016;5.428;2023-05-09T04:02:09;44.58;;;15.57;;
68457;SDS011;65384;52.016;5.428;2023-05-09T04:04:35;39.80;;;14.77;;
68457;SDS011;65384;52.016;5.428;2023-05-09T04:07:00;40.22;;;14.00;;
68457;SDS011;65384;52.016;5.428;2023-05-09T04:09:26;42.35;;;15.48;;
68457;SDS011;65384;52.016;5.428;2023-05-09T04:11:52;40.85;;;14.90;;
68457;SDS011;65384;52.016;5.428;2023-05-09T04:14:17;40.42;;;14.77;;
68457;SDS011;65384;52.016;5.428;2023-05-09T04:16:42;43.15;;;15.50;;
68457;SDS011;65384;52.016;5.428;2023-05-09T04:19:08;37.03;;;13.68;;
68457;SDS011;65384;52.016;5.428;2023-05-09T04:21:33;35.70;;;13.43;;
68457;SDS011;65384;52.016;5.428;2023-05-09T04:23:59;39.45;;;14.02;;
68457;SDS011;65384;52.016;5.428;2023-05-09T04:26:24;34.92;;;13.50;;
68457;SDS011;65384;52.016;5.428;2023-05-09T04:28:50;38.25;;;14.18;;
68457;SDS011;65384;52.016;5.428;2023-05-09T04:31:16;34.72;;;13.43;;
68457;SDS011;65384;52.016;5.428;2023-05-09T04:33:43;37.17;;;13.73;;
68457;SDS011;65384;52.016;5.428;2023-05-09T04:36:08;34.92;;;13.95;;
68457;SDS011;65384;52.016;5.428;2023-05-09T04:38:34;31.70;;;13.05;;
68457;SDS011;65384;52.016;5.428;2023-05-09T04:40:59;35.15;;;13.43;;
68457;SDS011;65384;52.016;5.428;2023-05-09T04:43:25;34.97;;;13.60;;
68457;SDS011;65384;52.016;5.428;2023-05-09T04:45:52;34.03;;;13.30;;
68457;SDS011;65384;52.016;5.428;2023-05-09T04:48:17;35.60;;;13.05;;
68457;SDS011;65384;52.016;5.428;2023-05-09T04:50:42;33.42;;;13.15;;
68457;SDS011;65384;52.016;5.428;2023-05-09T04:53:08;36.88;;;13.55;;
68457;SDS011;65384;52.016;5.428;2023-05-09T04:55:34;33.03;;;12.93;;
68457;SDS011;65384;52.016;5.428;2023-05-09T04:58:00;32.00;;;13.25;;
68457;SDS011;65384;52.016;5.428;2023-05-09T05:00:25;38.45;;;12.88;;
68457;SDS011;65384;52.016;5.428;2023-05-09T05:02:50;33.55;;;13.35;;
68457;SDS011;65384;52.016;5.428;2023-05-09T05:05:16;34.17;;;13.35;;
68457;SDS011;65384;52.016;5.428;2023-05-09T05:07:41;32.00;;;12.82;;
68457;SDS011;65384;52.016;5.428;2023-05-09T05:10:07;33.50;;;12.77;;
68457;SDS011;65384;52.016;5.428;2023-05-09T05:12:32;32.33;;;13.38;;
68457;SDS011;65384;52.016;5.428;2023-05-09T05:14:58;30.80;;;12.68;;
68457;SDS011;65384;52.016;5.428;2023-05-09T05:17:23;32.50;;;13.20;;
68457;SDS011;65384;52.016;5.428;2023-05-09T05:19:48;31.25;;;12.65;;
68457;SDS011;65384;52.016;5.428;2023-05-09T05:22:14;30.52;;;13.02;;
68457;SDS011;65384;52.016;5.428;2023-05-09T05:24:39;31.58;;;12.52;;
68457;SDS011;65384;52.016;5.428;2023-05-09T05:27:04;29.08;;;12.57;;
68457;SDS011;65384;52.016;5.428;2023-05-09T05:29:30;38.70;;;14.63;;
68457;SDS011;65384;52.016;5.428;2023-05-09T05:31:55;28.75;;;11.50;;
68457;SDS011;65384;52.016;5.428;2023-05-09T05:34:20;27.30;;;12.10;;
68457;SDS011;65384;52.016;5.428;2023-05-09T05:36:46;28.30;;;11.93;;
68457;SDS011;65384;52.016;5.428;2023-05-09T05:39:12;30.73;;;12.35;;
68457;SDS011;65384;52.016;5.428;2023-05-09T05:41:57;35.08;;;12.95;;
68457;SDS011;65384;52.016;5.428;2023-05-09T05:44:23;28.15;;;12.45;;
68457;SDS011;65384;52.016;5.428;2023-05-09T05:46:48;29.27;;;11.80;;
68457;SDS011;65384;52.016;5.428;2023-05-09T05:49:13;27.67;;;12.18;;
68457;SDS011;65384;52.016;5.428;2023-05-09T05:51:39;28.02;;;12.40;;
68457;SDS011;65384;52.016;5.428;2023-05-09T05:54:04;27.80;;;11.93;;
68457;SDS011;65384;52.016;5.428;2023-05-09T05:56:30;26.55;;;11.38;;
68457;SDS011;65384;52.016;5.428;2023-05-09T05:58:55;29.85;;;12.85;;
68457;SDS011;65384;52.016;5.428;2023-05-09T06:01:21;28.40;;;11.50;;
68457;SDS011;65384;52.016;5.428;2023-05-09T06:03:46;28.58;;;11.85;;
68457;SDS011;65384;52.016;5.428;2023-05-09T06:06:13;28.23;;;12.38;;
68457;SDS011;65384;52.016;5.428;2023-05-09T06:08:39;28.48;;;12.25;;
68457;SDS011;65384;52.016;5.428;2023-05-09T06:11:04;29.40;;;11.45;;
68457;SDS011;65384;52.016;5.428;2023-05-09T06:13:29;30.17;;;11.70;;
68457;SDS011;65384;52.016;5.428;2023-05-09T06:15:55;30.45;;;12.73;;
68457;SDS011;65384;52.016;5.428;2023-05-09T06:18:21;26.85;;;12.13;;
68457;SDS011;65384;52.016;5.428;2023-05-09T06:20:46;28.65;;;12.52;;
68457;SDS011;65384;52.016;5.428;2023-05-09T06:23:11;23.45;;;11.10;;
68457;SDS011;65384;52.016;5.428;2023-05-09T06:25:37;31.05;;;12.77;;
68457;SDS011;65384;52.016;5.428;2023-05-09T06:28:02;27.10;;;11.50;;
68457;SDS011;65384;52.016;5.428;2023-05-09T06:30:28;28.80;;;12.23;;
68457;SDS011;65384;52.016;5.428;2023-05-09T06:32:53;28.17;;;11.95;;
68457;SDS011;65384;52.016;5.428;2023-05-09T06:35:19;25.98;;;11.60;;
68457;SDS011;65384;52.016;5.428;2023-05-09T06:37:44;24.77;;;11.05;;
68457;SDS011;65384;52.016;5.428;2023-05-09T06:40:10;28.45;;;11.27;;
68457;SDS011;65384;52.016;5.428;2023-05-09T06:42:35;27.40;;;11.23;;
68457;SDS011;65384;52.016;5.428;2023-05-09T06:45:00;29.38;;;12.07;;
68457;SDS011;65384;52.016;5.428;2023-05-09T06:47:26;28.13;;;11.95;;
68457;SDS011;65384;52.016;5.428;2023-05-09T06:49:51;24.75;;;11.43;;
68457;SDS011;65384;52.016;5.428;2023-05-09T06:52:16;27.27;;;11.63;;
68457;SDS011;65384;52.016;5.428;2023-05-09T06:54:42;26.17;;;11.88;;
68457;SDS011;65384;52.016;5.428;2023-05-09T06:57:07;25.75;;;11.88;;
68457;SDS011;65384;52.016;5.428;2023-05-09T06:59:33;24.52;;;10.95;;
68457;SDS011;65384;52.016;5.428;2023-05-09T07:01:58;22.88;;;11.65;;
68457;SDS011;65384;52.016;5.428;2023-05-09T07:04:23;24.42;;;11.35;;
68457;SDS011;65384;52.016;5.428;2023-05-09T07:06:49;24.42;;;10.48;;
68457;SDS011;65384;52.016;5.428;2023-05-09T07:09:14;24.05;;;11.43;;
68457;SDS011;65384;52.016;5.428;2023-05-09T07:11:41;24.35;;;10.98;;
68457;SDS011;65384;52.016;5.428;2023-05-09T07:14:07;23.95;;;11.68;;
68457;SDS011;65384;52.016;5.428;2023-05-09T07:16:32;23.77;;;11.30;;
68457;SDS011;65384;52.016;5.428;2023-05-09T07:18:57;27.52;;;12.13;;
68457;SDS011;65384;52.016;5.428;2023-05-09T07:21:23;25.58;;;12.40;;
68457;SDS011;65384;52.016;5.428;2023-05-09T07:23:48;24.15;;;11.48;;
68457;SDS011;65384;52.016;5.428;2023-05-09T07:26:13;29.40;;;11.25;;
68457;SDS011;65384;52.016;5.428;2023-05-09T07:28:39;24.40;;;11.70;;
68457;SDS011;65384;52.016;5.428;2023-05-09T07:31:04;21.15;;;10.95;;
68457;SDS011;65384;52.016;5.428;2023-05-09T07:33:30;22.75;;;10.80;;
68457;SDS011;65384;52.016;5.428;2023-05-09T07:35:57;23.70;;;11.32;;
68457;SDS011;65384;52.016;5.428;2023-05-09T07:38:23;26.60;;;11.35;;
68457;SDS011;65384;52.016;5.428;2023-05-09T07:40:48;23.67;;;11.18;;
68457;SDS011;65384;52.016;5.428;2023-05-09T07:43:14;27.83;;;11.57;;
68457;SDS011;65384;52.016;5.428;2023-05-09T07:45:39;27.95;;;11.73;;
68457;SDS011;65384;52.016;5.428;2023-05-09T07:48:05;24.63;;;11.65;;
68457;SDS011;65384;52.016;5.428;2023-05-09T07:50:30;22.35;;;10.80;;
68457;SDS011;65384;52.016;5.428;2023-05-09T07:52:56;27.40;;;11.25;;
68457;SDS011;65384;52.016;5.428;2023-05-09T07:55:21;23.80;;;10.48;;
68457;SDS011;65384;52.016;5.428;2023-05-09T07:57:47;25.70;;;11.07;;
68457;SDS011;65384;52.016;5.428;2023-05-09T08:00:12;23.10;;;10.88;;
68457;SDS011;65384;52.016;5.428;2023-05-09T08:02:39;20.55;;;10.15;;
68457;SDS011;65384;52.016;5.428;2023-05-09T08:07:39;21.77;;;10.75;;
68457;SDS011;65384;52.016;5.428;2023-05-09T08:10:08;27.48;;;10.85;;
68457;SDS011;65384;52.016;5.428;2023-05-09T08:12:34;24.10;;;10.02;;
68457;SDS011;65384;52.016;5.428;2023-05-09T08:17:34;23.73;;;10.35;;
68457;SDS011;65384;52.016;5.428;2023-05-09T08:20:00;22.70;;;10.43;;
68457;SDS011;65384;52.016;5.428;2023-05-09T08:22:25;20.95;;;10.48;;
68457;SDS011;65384;52.016;5.428;2023-05-09T08:24:51;21.02;;;10.30;;
68457;SDS011;65384;52.016;5.428;2023-05-09T08:27:16;22.27;;;9.50;;
68457;SDS011;65384;52.016;5.428;2023-05-09T08:29:42;18.52;;;9.18;;
68457;SDS011;65384;52.016;5.428;2023-05-09T08:32:07;19.38;;;8.65;;
68457;SDS011;65384;52.016;5.428;2023-05-09T08:34:33;20.05;;;9.23;;
68457;SDS011;65384;52.016;5.428;2023-05-09T08:36:59;18.95;;;8.68;;
68457;SDS011;65384;52.016;5.428;2023-05-09T08:39:25;18.00;;;9.25;;
68457;SDS011;65384;52.016;5.428;2023-05-09T08:41:50;21.52;;;9.52;;
68457;SDS011;65384;52.016;5.428;2023-05-09T08:44:18;15.85;;;8.48;;
68457;SDS011;65384;52.016;5.428;2023-05-09T08:46:45;19.15;;;8.82;;
68457;SDS011;65384;52.016;5.428;2023-05-09T08:49:11;16.92;;;9.00;;
68457;SDS011;65384;52.016;5.428;2023-05-09T08:51:37;17.33;;;7.18;;
68457;SDS011;65384;52.016;5.428;2023-05-09T08:54:03;17.88;;;9.38;;
68457;SDS011;65384;52.016;5.428;2023-05-09T08:56:29;17.30;;;8.40;;
68457;SDS011;65384;52.016;5.428;2023-05-09T08:58:55;20.15;;;9.00;;
68457;SDS011;65384;52.016;5.428;2023-05-09T09:01:21;19.83;;;9.70;;
68457;SDS011;65384;52.016;5.428;2023-05-09T09:03:47;17.60;;;8.23;;
68457;SDS011;65384;52.016;5.428;2023-05-09T09:06:14;17.88;;;8.77;;
68457;SDS011;65384;52.016;5.428;2023-05-09T09:08:40;17.45;;;8.13;;
68457;SDS011;65384;52.016;5.428;2023-05-09T09:11:06;15.10;;;7.47;;
68457;SDS011;65384;52.016;5.428;2023-05-09T09:13:31;15.40;;;7.38;;
68457;SDS011;65384;52.016;5.428;2023-05-09T09:16:02;17.02;;;8.13;;
68457;SDS011;65384;52.016;5.428;2023-05-09T09:18:29;17.17;;;8.10;;
68457;SDS011;65384;52.016;5.428;2023-05-09T09:21:08;15.38;;;7.95;;
68457;SDS011;65384;52.016;5.428;2023-05-09T09:23:34;14.35;;;7.63;;
68457;SDS011;65384;52.016;5.428;2023-05-09T09:26:01;17.48;;;8.43;;
68457;SDS011;65384;52.016;5.428;2023-05-09T09:28:29;15.50;;;8.05;;
68457;SDS011;65384;52.016;5.428;2023-05-09T09:30:54;13.32;;;7.35;;
68457;SDS011;65384;52.016;5.428;2023-05-09T09:33:20;13.65;;;7.25;;
68457;SDS011;65384;52.016;5.428;2023-05-09T09:35:47;13.25;;;7.20;;
68457;SDS011;65384;52.016;5.428;2023-05-09T09:38:13;16.42;;;7.65;;
68457;SDS011;65384;52.016;5.428;2023-05-09T09:40:39;15.35;;;7.40;;
68457;SDS011;65384;52.016;5.428;2023-05-09T09:43:07;13.50;;;7.25;;
68457;SDS011;65384;52.016;5.428;2023-05-09T09:45:33;13.27;;;7.32;;
68457;SDS011;65384;52.016;5.428;2023-05-09T09:48:01;14.43;;;7.35;;
68457;SDS011;65384;52.016;5.428;2023-05-09T09:50:30;18.00;;;8.38;;
68457;SDS011;65384;52.016;5.428;2023-05-09T09:52:55;14.63;;;7.60;;
68457;SDS011;65384;52.016;5.428;2023-05-09T09:55:21;15.05;;;7.38;;
68457;SDS011;65384;52.016;5.428;2023-05-09T09:57:48;13.65;;;7.38;;
68457;SDS011;65384;52.016;5.428;2023-05-09T10:00:16;13.73;;;7.45;;
68457;SDS011;65384;52.016;5.428;2023-05-09T10:02:59;14.95;;;7.85;;
68457;SDS011;65384;52.016;5.428;2023-05-09T10:05:28;15.60;;;8.00;;
68457;SDS011;65384;52.016;5.428;2023-05-09T10:07:58;17.58;;;7.60;;
68457;SDS011;65384;52.016;5.428;2023-05-09T10:10:30;17.00;;;7.90;;
68457;SDS011;65384;52.016;5.428;2023-05-09T10:12:57;17.85;;;8.52;;
68457;SDS011;65384;52.016;5.428;2023-05-09T10:15:25;21.27;;;8.65;;
68457;SDS011;65384;52.016;5.428;2023-05-09T10:17:53;16.15;;;8.55;;
68457;SDS011;65384;52.016;5.428;2023-05-09T10:20:21;17.98;;;8.77;;
68457;SDS011;65384;52.016;5.428;2023-05-09T10:22:46;15.75;;;8.48;;
68457;SDS011;65384;52.016;5.428;2023-05-09T10:25:23;15.82;;;8.10;;
68457;SDS011;65384;52.016;5.428;2023-05-09T10:27:52;14.70;;;7.57;;
68457;SDS011;65384;52.016;5.428;2023-05-09T10:30:21;14.30;;;7.25;;
68457;SDS011;65384;52.016;5.428;2023-05-09T10:35:19;16.45;;;7.78;;
68457;SDS011;65384;52.016;5.428;2023-05-09T10:37:50;14.73;;;7.57;;
68457;SDS011;65384;52.016;5.428;2023-05-09T10:40:17;14.98;;;7.72;;
68457;SDS011;65384;52.016;5.428;2023-05-09T10:42:44;15.23;;;7.75;;
68457;SDS011;65384;52.016;5.428;2023-05-09T10:45:10;22.63;;;8.57;;
68457;SDS011;65384;52.016;5.428;2023-05-09T10:47:37;15.52;;;8.13;;
68457;SDS011;65384;52.016;5.428;2023-05-09T10:50:03;19.38;;;7.75;;
68457;SDS011;65384;52.016;5.428;2023-05-09T10:52:30;19.88;;;8.20;;
68457;SDS011;65384;52.016;5.428;2023-05-09T10:55:01;20.73;;;8.23;;
68457;SDS011;65384;52.016;5.428;2023-05-09T10:57:28;14.15;;;7.50;;
68457;SDS011;65384;52.016;5.428;2023-05-09T10:59:55;18.17;;;7.78;;
68457;SDS011;65384;52.016;5.428;2023-05-09T11:02:21;15.02;;;7.82;;
68457;SDS011;65384;52.016;5.428;2023-05-09T11:04:48;16.08;;;8.02;;
68457;SDS011;65384;52.016;5.428;2023-05-09T11:07:23;15.50;;;7.55;;
68457;SDS011;65384;52.016;5.428;2023-05-09T11:09:51;13.93;;;7.65;;
68457;SDS011;65384;52.016;5.428;2023-05-09T11:12:29;13.93;;;7.68;;
68457;SDS011;65384;52.016;5.428;2023-05-09T11:14:56;15.23;;;7.53;;
68457;SDS011;65384;52.016;5.428;2023-05-09T11:17:29;16.83;;;8.55;;
68457;SDS011;65384;52.016;5.428;2023-05-09T11:22:29;17.52;;;8.90;;
68457;SDS011;65384;52.016;5.428;2023-05-09T11:25:12;16.90;;;8.10;;
68457;SDS011;65384;52.016;5.428;2023-05-09T11:27:42;14.98;;;7.68;;
68457;SDS011;65384;52.016;5.428;2023-05-09T11:30:12;16.15;;;8.48;;
68457;SDS011;65384;52.016;5.428;2023-05-09T11:32:43;13.55;;;7.43;;
68457;SDS011;65384;52.016;5.428;2023-05-09T11:35:13;16.98;;;8.50;;
68457;SDS011;65384;52.016;5.428;2023-05-09T11:40:33;17.20;;;8.25;;
68457;SDS011;65384;52.016;5.428;2023-05-09T11:42:59;13.98;;;7.65;;
68457;SDS011;65384;52.016;5.428;2023-05-09T11:45:30;18.73;;;9.02;;
68457;SDS011;65384;52.016;5.428;2023-05-09T11:47:56;21.05;;;9.30;;
68457;SDS011;65384;52.016;5.428;2023-05-09T11:50:22;18.20;;;9.25;;
68457;SDS011;65384;52.016;5.428;2023-05-09T11:52:47;17.88;;;9.82;;
68457;SDS011;65384;52.016;5.428;2023-05-09T11:55:14;18.33;;;9.32;;
68457;SDS011;65384;52.016;5.428;2023-05-09T11:57:45;14.85;;;8.45;;
68457;SDS011;65384;52.016;5.428;2023-05-09T12:00:21;18.40;;;7.93;;
68457;SDS011;65384;52.016;5.428;2023-05-09T12:02:48;15.90;;;8.85;;
68457;SDS011;65384;52.016;5.428;2023-05-09T12:05:18;16.00;;;8.30;;
68457;SDS011;65384;52.016;5.428;2023-05-09T12:07:45;15.75;;;9.10;;
68457;SDS011;65384;52.016;5.428;2023-05-09T12:12:44;17.50;;;9.07;;
68457;SDS011;65384;52.016;5.428;2023-05-09T12:15:11;19.90;;;9.23;;
68457;SDS011;65384;52.016;5.428;2023-05-09T12:17:37;18.27;;;8.90;;
68457;SDS011;65384;52.016;5.428;2023-05-09T12:20:06;19.08;;;9.48;;
68457;SDS011;65384;52.016;5.428;2023-05-09T12:22:33;16.15;;;8.02;;
68457;SDS011;65384;52.016;5.428;2023-05-09T12:25:00;15.23;;;7.70;;
68457;SDS011;65384;52.016;5.428;2023-05-09T12:27:28;16.25;;;7.63;;
68457;SDS011;65384;52.016;5.428;2023-05-09T12:29:54;13.48;;;7.53;;
68457;SDS011;65384;52.016;5.428;2023-05-09T12:32:19;14.35;;;7.53;;
68457;SDS011;65384;52.016;5.428;2023-05-09T12:34:45;15.90;;;8.55;;
68457;SDS011;65384;52.016;5.428;2023-05-09T12:37:21;15.05;;;8.10;;
68457;SDS011;65384;52.016;5.428;2023-05-09T12:40:03;15.25;;;8.23;;
68457;SDS011;65384;52.016;5.428;2023-05-09T12:42:41;13.02;;;7.50;;
68457;SDS011;65384;52.016;5.428;2023-05-09T12:45:07;17.50;;;8.07;;
68457;SDS011;65384;52.016;5.428;2023-05-09T12:47:34;13.48;;;7.45;;
68457;SDS011;65384;52.016;5.428;2023-05-09T12:50:03;14.95;;;7.15;;
68457;SDS011;65384;52.016;5.428;2023-05-09T12:52:33;11.20;;;6.43;;
68457;SDS011;65384;52.016;5.428;2023-05-09T12:55:04;9.63;;;5.40;;
68457;SDS011;65384;52.016;5.428;2023-05-09T12:57:33;8.77;;;5.22;;
68457;SDS011;65384;52.016;5.428;2023-05-09T12:59:59;9.00;;;5.00;;
68457;SDS011;65384;52.016;5.428;2023-05-09T13:02:26;8.88;;;5.53;;
68457;SDS011;65384;52.016;5.428;2023-05-09T13:05:10;8.48;;;5.13;;
68457;SDS011;65384;52.016;5.428;2023-05-09T13:07:48;9.20;;;4.30;;
68457;SDS011;65384;52.016;5.428;2023-05-09T13:10:16;8.40;;;4.53;;
68457;SDS011;65384;52.016;5.428;2023-05-09T13:12:48;6.53;;;4.10;;
68457;SDS011;65384;52.016;5.428;2023-05-09T13:15:15;7.85;;;4.90;;
68457;SDS011;65384;52.016;5.428;2023-05-09T13:17:41;8.75;;;5.22;;
68457;SDS011;65384;52.016;5.428;2023-05-09T13:20:07;10.70;;;6.25;;
68457;SDS011;65384;52.016;5.428;2023-05-09T13:22:32;11.05;;;6.28;;
68457;SDS011;65384;52.016;5.428;2023-05-09T13:24:58;13.68;;;6.60;;
68457;SDS011;65384;52.016;5.428;2023-05-09T13:27:23;11.20;;;6.35;;
68457;SDS011;65384;52.016;5.428;2023-05-09T13:29:49;13.27;;;6.82;;
68457;SDS011;65384;52.016;5.428;2023-05-09T13:32:14;11.40;;;6.45;;
68457;SDS011;65384;52.016;5.428;2023-05-09T13:34:40;13.45;;;6.60;;
68457;SDS011;65384;52.016;5.428;2023-05-09T13:37:05;12.50;;;6.68;;
68457;SDS011;65384;52.016;5.428;2023-05-09T13:39:30;11.70;;;6.50;;
68457;SDS011;65384;52.016;5.428;2023-05-09T13:41:56;11.32;;;6.20;;
68457;SDS011;65384;52.016;5.428;2023-05-09T13:44:21;9.90;;;6.03;;
68457;SDS011;65384;52.016;5.428;2023-05-09T13:46:47;9.65;;;5.88;;
68457;SDS011;65384;52.016;5.428;2023-05-09T13:49:13;10.93;;;5.85;;
68457;SDS011;65384;52.016;5.428;2023-05-09T13:51:39;9.98;;;6.15;;
68457;SDS011;65384;52.016;5.428;2023-05-09T13:54:05;10.57;;;5.90;;
68457;SDS011;65384;52.016;5.428;2023-05-09T13:56:37;13.55;;;6.15;;
68457;SDS011;65384;52.016;5.428;2023-05-09T13:59:11;10.65;;;5.78;;
68457;SDS011;65384;52.016;5.428;2023-05-09T14:01:37;9.50;;;5.47;;
68457;SDS011;65384;52.016;5.428;2023-05-09T14:04:02;9.88;;;5.82;;
68457;SDS011;65384;52.016;5.428;2023-05-09T14:06:27;11.80;;;5.70;;
68457;SDS011;65384;52.016;5.428;2023-05-09T14:08:56;8.43;;;5.30;;
68457;SDS011;65384;52.016;5.428;2023-05-09T14:11:22;9.35;;;5.45;;
68457;SDS011;65384;52.016;5.428;2023-05-09T14:13:49;10.13;;;5.35;;
68457;SDS011;65384;52.016;5.428;2023-05-09T14:16:14;10.02;;;5.88;;
68457;SDS011;65384;52.016;5.428;2023-05-09T14:18:39;10.60;;;5.90;;
68457;SDS011;65384;52.016;5.428;2023-05-09T14:21:05;12.32;;;6.18;;
68457;SDS011;65384;52.016;5.428;2023-05-09T14:23:30;11.88;;;6.15;;
68457;SDS011;65384;52.016;5.428;2023-05-09T14:25:56;8.88;;;5.22;;
68457;SDS011;65384;52.016;5.428;2023-05-09T14:28:22;10.13;;;5.10;;
68457;SDS011;65384;52.016;5.428;2023-05-09T14:30:48;12.90;;;6.38;;
68457;SDS011;65384;52.016;5.428;2023-05-09T14:33:13;13.35;;;5.95;;
68457;SDS011;65384;52.016;5.428;2023-05-09T14:35:38;10.98;;;5.53;;
68457;SDS011;65384;52.016;5.428;2023-05-09T14:38:04;11.02;;;5.30;;
68457;SDS011;65384;52.016;5.428;2023-05-09T14:40:29;9.82;;;5.65;;
68457;SDS011;65384;52.016;5.428;2023-05-09T14:42:59;8.70;;;5.40;;
68457;SDS011;65384;52.016;5.428;2023-05-09T14:45:29;9.85;;;5.13;;
68457;SDS011;65384;52.016;5.428;2023-05-09T14:47:56;9.98;;;5.13;;
68457;SDS011;65384;52.016;5.428;2023-05-09T14:50:22;10.23;;;5.40;;
68457;SDS011;65384;52.016;5.428;2023-05-09T14:52:48;8.40;;;5.10;;
68457;SDS011;65384;52.016;5.428;2023-05-09T14:55:17;9.27;;;4.75;;
68457;SDS011;65384;52.016;5.428;2023-05-09T14:57:43;8.57;;;5.20;;
68457;SDS011;65384;52.016;5.428;2023-05-09T15:00:08;8.68;;;5.22;;
68457;SDS011;65384;52.016;5.428;2023-05-09T15:02:35;8.10;;;4.93;;
68457;SDS011;65384;52.016;5.428;2023-05-09T15:05:01;7.18;;;4.28;;
68457;SDS011;65384;52.016;5.428;2023-05-09T15:07:26;8.15;;;5.05;;
68457;SDS011;65384;52.016;5.428;2023-05-09T15:09:51;9.07;;;5.35;;